createdAt,value
2023-01-17T00:00:15.564Z,41.12
2023-01-17T00:02:43.709Z,41.09
2023-01-17T00:05:28.957Z,41.20
2023-01-17T00:08:14.221Z,41.21
2023-01-17T00:10:43.660Z,41.19
2023-01-17T00:13:11.838Z,41.13
2023-01-17T00:15:40.173Z,41.13
2023-01-17T00:18:08.195Z,41.26
2023-01-17T00:20:53.426Z,41.06
2023-01-17T00:23:56.247Z,41.12
2023-01-17T00:26:25.761Z,41.12
2023-01-17T00:28:52.767Z,41.06
2023-01-17T00:31:21.295Z,41.14
2023-01-17T00:33:48.120Z,41.15
2023-01-17T00:36:15.043Z,41.08
2023-01-17T00:38:41.959Z,41.07
2023-01-17T00:41:10.857Z,41.04
2023-01-17T00:43:58.016Z,41.08
2023-01-17T00:46:43.916Z,41.05
2023-01-17T00:49:29.241Z,40.95
2023-01-17T00:52:14.697Z,41.04
2023-01-17T00:55:00.467Z,41.07
2023-01-17T00:57:46.199Z,40.98
2023-01-17T01:00:34.354Z,40.96
2023-01-17T01:03:19.769Z,41.05
2023-01-17T01:06:04.933Z,41.07
2023-01-17T01:08:50.675Z,41.12
2023-01-17T01:11:39.872Z,40.99
2023-01-17T01:14:27.550Z,41.05
2023-01-17T01:17:14.526Z,41.01
2023-01-17T01:19:59.690Z,41.04
2023-01-17T01:22:45.445Z,41.07
2023-01-17T01:25:31.201Z,41.01
2023-01-17T01:28:22.540Z,40.95
2023-01-17T01:31:08.063Z,40.96
2023-01-17T01:33:37.521Z,40.93
2023-01-17T01:36:09.041Z,41.05
2023-01-17T01:38:37.334Z,40.92
2023-01-17T01:41:05.960Z,40.91
2023-01-17T01:43:46.845Z,40.59
2023-01-17T01:46:17.733Z,41.04
2023-01-17T01:48:50.568Z,40.94
2023-01-17T01:51:25.019Z,41.03
2023-01-17T01:53:59.830Z,41.10
2023-01-17T01:56:29.370Z,41.01
2023-01-17T01:58:59.664Z,40.95
2023-01-17T02:01:27.928Z,40.99
2023-01-17T02:03:57.658Z,41.04
2023-01-17T02:06:30.775Z,40.75
2023-01-17T02:09:03.278Z,40.93
2023-01-17T02:11:32.010Z,40.96
2023-01-17T02:14:00.306Z,40.87
2023-01-17T02:16:48.854Z,40.80
2023-01-17T02:20:02.224Z,40.48
2023-01-17T02:23:02.795Z,40.47
2023-01-17T02:25:49.963Z,40.67
2023-01-17T02:28:37.837Z,40.72
2023-01-17T02:31:15.194Z,40.74
2023-01-17T02:33:52.387Z,40.96
2023-01-17T02:36:25.154Z,40.99
2023-01-17T02:38:58.250Z,41.04
2023-01-17T02:41:31.725Z,40.86
2023-01-17T02:43:59.748Z,40.89
2023-01-17T02:46:29.209Z,40.84
2023-01-17T02:48:58.944Z,40.87
2023-01-17T02:51:50.675Z,40.62
2023-01-17T02:54:51.539Z,40.44
2023-01-17T02:57:34.093Z,40.81
2023-01-17T03:00:07.454Z,40.97
2023-01-17T03:02:48.999Z,40.82
2023-01-17T03:05:23.250Z,40.93
2023-01-17T03:07:53.880Z,40.81
2023-01-17T03:10:22.997Z,40.91
2023-01-17T03:12:52.164Z,40.92
2023-01-17T03:15:20.262Z,40.97
2023-01-17T03:17:53.956Z,40.80
2023-01-17T03:20:22.804Z,40.89
2023-01-17T03:22:51.051Z,40.98
2023-01-17T03:25:19.098Z,40.82
2023-01-17T03:27:47.418Z,40.75
2023-01-17T03:30:16.164Z,40.76
2023-01-17T03:32:44.215Z,40.72
2023-01-17T03:35:13.913Z,40.81
2023-01-17T03:37:42.251Z,40.67
2023-01-17T03:40:11.378Z,40.74
2023-01-17T03:42:39.907Z,40.68
2023-01-17T03:45:08.725Z,40.76
2023-01-17T03:47:37.155Z,40.70
2023-01-17T03:50:05.787Z,40.69
2023-01-17T03:52:35.316Z,40.53
2023-01-17T03:55:03.779Z,40.78
2023-01-17T03:57:31.837Z,40.86
2023-01-17T03:59:59.940Z,40.71
2023-01-17T04:02:27.998Z,40.74
2023-01-17T04:04:58.323Z,40.70
2023-01-17T04:07:26.357Z,40.67
2023-01-17T04:09:56.018Z,40.69
2023-01-17T04:12:24.141Z,40.75
2023-01-17T04:14:52.249Z,40.74
2023-01-17T04:17:21.337Z,40.73
2023-01-17T04:19:49.825Z,40.68
2023-01-17T04:22:17.932Z,40.56
2023-01-17T04:24:46.041Z,40.81
2023-01-17T04:27:16.078Z,40.77
2023-01-17T04:29:46.607Z,40.76
2023-01-17T04:32:14.908Z,40.71
2023-01-17T04:34:42.988Z,40.61
2023-01-17T04:37:11.007Z,40.75
2023-01-17T04:39:39.117Z,40.68
2023-01-17T04:42:07.279Z,40.74
2023-01-17T04:44:36.704Z,40.70
2023-01-17T04:47:04.848Z,40.84
2023-01-17T04:49:32.907Z,40.61
2023-01-17T04:52:00.937Z,40.57
2023-01-17T04:54:28.996Z,40.70
2023-01-17T04:56:57.559Z,40.62
2023-01-17T04:59:25.600Z,40.64
2023-01-17T05:01:55.109Z,40.69
2023-01-17T05:04:23.190Z,40.65
2023-01-17T05:06:51.220Z,40.79
2023-01-17T05:09:19.260Z,40.52
2023-01-17T05:11:47.307Z,40.70
2023-01-17T05:14:15.326Z,40.63
2023-01-17T05:16:43.543Z,40.55
2023-01-17T05:19:13.056Z,40.70
2023-01-17T05:21:41.123Z,40.65
2023-01-17T05:24:09.302Z,40.63
2023-01-17T05:26:37.524Z,40.67
2023-01-17T05:29:05.847Z,40.56
2023-01-17T05:31:36.987Z,40.57
2023-01-17T05:34:05.839Z,40.62
2023-01-17T05:36:35.377Z,40.66
2023-01-17T05:39:03.810Z,40.64
2023-01-17T05:41:31.953Z,40.50
2023-01-17T05:44:02.820Z,40.59
2023-01-17T05:46:30.917Z,40.47
2023-01-17T05:48:59.175Z,40.69
2023-01-17T05:51:27.325Z,40.53
2023-01-17T05:53:56.933Z,40.64
2023-01-17T05:56:25.093Z,40.46
2023-01-17T05:58:53.205Z,40.59
2023-01-17T06:01:21.385Z,40.59
2023-01-17T06:03:49.470Z,40.66
2023-01-17T06:06:17.565Z,40.51
2023-01-17T06:08:45.700Z,40.50
2023-01-17T06:11:15.356Z,40.64
2023-01-17T06:13:43.434Z,40.54
2023-01-17T06:16:11.656Z,40.53
2023-01-17T06:18:39.722Z,40.58
2023-01-17T06:21:08.173Z,40.52
2023-01-17T06:23:36.259Z,40.51
2023-01-17T06:26:05.322Z,40.45
2023-01-17T06:28:34.881Z,40.48
2023-01-17T06:31:07.438Z,40.63
2023-01-17T06:33:35.473Z,40.65
2023-01-17T06:36:03.537Z,40.62
2023-01-17T06:38:31.713Z,40.55
2023-01-17T06:41:00.669Z,40.42
2023-01-17T06:43:32.714Z,40.64
2023-01-17T06:46:02.872Z,40.46
2023-01-17T06:48:30.903Z,40.49
2023-01-17T06:50:59.598Z,40.48
2023-01-17T06:53:27.854Z,40.52
2023-01-17T06:55:57.768Z,40.48
2023-01-17T06:58:26.481Z,40.48
2023-01-17T07:00:54.702Z,40.57
2023-01-17T07:03:25.987Z,40.51
2023-01-17T07:05:54.402Z,40.52
2023-01-17T07:08:22.542Z,40.57
2023-01-17T07:10:50.700Z,40.56
2023-01-17T07:13:18.728Z,40.51
2023-01-17T07:15:46.921Z,40.48
2023-01-17T07:18:15.281Z,40.46
2023-01-17T07:20:45.723Z,40.52
2023-01-17T07:23:13.901Z,40.49
2023-01-17T07:25:42.069Z,40.66
2023-01-17T07:28:10.267Z,40.37
2023-01-17T07:30:38.366Z,40.47
2023-01-17T07:33:06.537Z,40.50
2023-01-17T07:35:34.931Z,40.53
2023-01-17T07:38:05.849Z,40.47
2023-01-17T07:40:41.551Z,40.49
2023-01-17T07:43:14.223Z,40.44
2023-01-17T07:45:43.643Z,40.48
2023-01-17T07:48:12.824Z,40.44
2023-01-17T07:50:41.190Z,40.68
2023-01-17T07:53:10.847Z,40.54
2023-01-17T07:55:39.120Z,40.54
2023-01-17T07:58:07.497Z,40.38
2023-01-17T08:00:35.645Z,40.42
2023-01-17T08:03:03.885Z,40.39
2023-01-17T08:05:32.066Z,40.36
2023-01-17T08:08:00.141Z,40.40
2023-01-17T08:10:29.763Z,40.40
2023-01-17T08:12:57.888Z,40.46
2023-01-17T08:15:26.782Z,40.47
2023-01-17T08:17:54.927Z,40.54
2023-01-17T08:20:24.232Z,40.45
2023-01-17T08:22:55.962Z,40.49
2023-01-17T08:25:26.035Z,40.46
2023-01-17T08:27:58.909Z,40.32
2023-01-17T08:30:27.697Z,40.45
2023-01-17T08:32:56.169Z,40.37
2023-01-17T08:35:24.357Z,40.54
2023-01-17T08:37:56.571Z,40.40
2023-01-17T08:40:25.464Z,40.33
2023-01-17T08:42:58.838Z,40.46
2023-01-17T08:45:27.431Z,40.42
2023-01-17T08:47:55.578Z,40.44
2023-01-17T08:50:25.077Z,40.40
2023-01-17T08:52:53.604Z,40.40
2023-01-17T08:55:22.004Z,40.35
2023-01-17T08:57:50.090Z,40.39
2023-01-17T09:00:20.595Z,40.37
2023-01-17T09:02:48.664Z,40.36
2023-01-17T09:05:16.937Z,40.31
2023-01-17T09:07:45.158Z,40.35
2023-01-17T09:10:13.605Z,40.25
2023-01-17T09:12:41.729Z,40.47
2023-01-17T09:15:10.452Z,40.32
2023-01-17T09:17:40.363Z,40.33
2023-01-17T09:20:10.025Z,40.39
2023-01-17T09:22:39.110Z,40.45
2023-01-17T09:25:08.758Z,40.36
2023-01-17T09:27:37.043Z,40.33
2023-01-17T09:30:06.210Z,40.32
2023-01-17T09:32:34.360Z,40.41
2023-01-17T09:35:08.026Z,40.33
2023-01-17T09:37:37.395Z,40.43
2023-01-17T09:40:06.579Z,40.34
2023-01-17T09:42:39.461Z,40.40
2023-01-17T09:45:16.011Z,40.38
2023-01-17T09:47:46.558Z,40.39
2023-01-17T09:50:26.524Z,40.24
2023-01-17T09:53:00.860Z,40.34
2023-01-17T09:55:36.020Z,40.37
2023-01-17T09:58:08.900Z,40.41
2023-01-17T10:00:50.962Z,40.27
2023-01-17T10:03:40.232Z,40.12
2023-01-17T10:06:36.349Z,40.17
2023-01-17T10:09:22.696Z,40.23
2023-01-17T10:12:05.515Z,40.17
2023-01-17T10:14:52.156Z,40.12
2023-01-17T10:17:36.450Z,40.25
2023-01-17T10:20:36.261Z,40.13
2023-01-17T10:23:31.044Z,40.26
2023-01-17T10:26:02.701Z,40.27
2023-01-17T10:28:35.596Z,40.41
2023-01-17T10:31:07.588Z,40.35
2023-01-17T10:33:41.626Z,40.26
2023-01-17T10:36:15.455Z,40.35
2023-01-17T10:38:48.095Z,40.34
2023-01-17T10:41:22.776Z,40.29
2023-01-17T10:43:59.555Z,40.26
2023-01-17T10:46:34.931Z,40.19
2023-01-17T10:49:03.904Z,40.38
2023-01-17T10:52:02.430Z,40.01
2023-01-17T10:54:50.038Z,40.21
2023-01-17T10:57:22.491Z,40.29
2023-01-17T10:59:51.174Z,40.35
2023-01-17T11:02:25.156Z,40.37
2023-01-17T11:04:55.818Z,40.38
2023-01-17T11:07:25.589Z,40.38
2023-01-17T11:09:57.012Z,40.30
2023-01-17T11:12:30.037Z,40.36
2023-01-17T11:15:22.911Z,40.00
2023-01-17T11:18:01.226Z,40.27
2023-01-17T11:20:34.512Z,40.31
2023-01-17T11:23:08.065Z,40.32
2023-01-17T11:25:39.332Z,40.29
2023-01-17T11:28:19.120Z,40.30
2023-01-17T11:30:53.909Z,40.31
2023-01-17T11:33:45.245Z,40.13
2023-01-17T11:36:19.328Z,40.19
2023-01-17T11:39:02.958Z,40.09
2023-01-17T11:41:37.274Z,40.21
2023-01-17T11:44:22.249Z,40.29
2023-01-17T11:46:50.755Z,40.27
2023-01-17T11:49:25.029Z,40.18
2023-01-17T11:51:56.355Z,40.31
2023-01-17T11:54:29.027Z,40.29
2023-01-17T11:57:02.776Z,40.20
2023-01-17T11:59:34.312Z,40.32
2023-01-17T12:02:31.897Z,40.17
2023-01-17T12:05:10.549Z,40.27
2023-01-17T12:07:51.408Z,40.21
2023-01-17T12:10:24.975Z,40.18
2023-01-17T12:13:20.200Z,40.22
2023-01-17T12:16:00.426Z,40.21
2023-01-17T12:18:43.328Z,40.15
2023-01-17T12:21:18.039Z,40.22
2023-01-17T12:24:07.052Z,40.17
2023-01-17T12:26:42.341Z,40.34
2023-01-17T12:29:45.880Z,40.18
2023-01-17T12:32:34.218Z,40.25
2023-01-17T12:35:09.504Z,40.27
2023-01-17T12:37:40.395Z,40.32
2023-01-17T12:40:22.298Z,40.12
2023-01-17T12:42:55.982Z,40.26
2023-01-17T12:45:32.218Z,40.49
2023-01-17T12:48:06.135Z,40.33
2023-01-17T12:50:40.131Z,40.25
2023-01-17T12:53:19.864Z,40.15
2023-01-17T12:55:55.743Z,40.18
2023-01-17T12:58:26.216Z,40.28
2023-01-17T13:01:03.807Z,40.24
2023-01-17T13:03:43.104Z,40.23
2023-01-17T13:06:21.577Z,40.16
2023-01-17T13:08:54.774Z,40.31
2023-01-17T13:11:30.204Z,40.20
2023-01-17T13:14:00.005Z,40.10
2023-01-17T13:16:35.156Z,40.30
2023-01-17T13:19:09.084Z,40.38
2023-01-17T13:21:37.501Z,40.23
2023-01-17T13:24:27.970Z,40.18
2023-01-17T13:27:35.624Z,39.98
2023-01-17T13:30:27.637Z,39.98
2023-01-17T13:33:18.491Z,40.11
2023-01-17T13:35:58.210Z,40.18
2023-01-17T13:38:56.099Z,40.01
2023-01-17T13:41:38.185Z,40.30
2023-01-17T13:44:25.315Z,40.25
2023-01-17T13:46:58.809Z,40.29
2023-01-17T13:49:43.980Z,40.14
2023-01-17T13:52:33.186Z,40.33
2023-01-17T13:55:03.395Z,40.24
2023-01-17T13:57:42.368Z,40.16
2023-01-17T14:00:59.346Z,40.00
2023-01-17T14:04:03.786Z,39.97
2023-01-17T14:06:41.851Z,40.17
2023-01-17T14:09:16.768Z,40.14
2023-01-17T14:12:03.669Z,40.14
2023-01-17T14:14:48.904Z,40.03
2023-01-17T14:17:55.820Z,40.08
2023-01-17T14:21:00.456Z,40.06
2023-01-17T14:23:56.957Z,40.09
2023-01-17T14:26:42.809Z,40.16
2023-01-17T14:29:57.883Z,40.12
2023-01-17T14:32:30.776Z,40.30
2023-01-17T14:34:58.838Z,40.20
2023-01-17T14:37:46.937Z,40.11
2023-01-17T14:40:20.528Z,40.35
2023-01-17T14:42:55.359Z,40.27
2023-01-17T14:45:29.013Z,40.19
2023-01-17T14:47:58.964Z,40.18
2023-01-17T14:50:30.485Z,40.29
2023-01-17T14:53:28.266Z,39.96
2023-01-17T14:56:01.195Z,40.25
2023-01-17T14:58:31.390Z,40.36
2023-01-17T15:01:04.938Z,40.19
2023-01-17T15:03:36.881Z,40.29
2023-01-17T15:06:12.594Z,40.29
2023-01-17T15:08:40.831Z,40.26
2023-01-17T15:11:17.782Z,40.16
2023-01-17T15:13:49.606Z,40.37
2023-01-17T15:16:23.602Z,40.28
2023-01-17T15:18:52.681Z,40.29
2023-01-17T15:21:23.689Z,40.25
2023-01-17T15:23:55.479Z,40.31
2023-01-17T15:26:27.653Z,40.20
2023-01-17T15:29:04.000Z,40.15
2023-01-17T15:31:41.279Z,40.17
2023-01-17T15:34:15.728Z,40.14
2023-01-17T15:36:43.841Z,40.27
2023-01-17T15:39:20.418Z,40.13
2023-01-17T15:41:52.966Z,40.23
2023-01-17T15:44:47.529Z,40.10
2023-01-17T15:47:29.022Z,40.01
2023-01-17T15:49:57.482Z,40.17
2023-01-17T15:52:25.659Z,40.31
2023-01-17T15:54:54.878Z,40.37
2023-01-17T15:57:29.555Z,40.13
2023-01-17T16:00:01.505Z,40.27
2023-01-17T16:02:37.202Z,40.09
2023-01-17T16:05:34.826Z,39.89
2023-01-17T16:08:26.480Z,39.82
2023-01-17T16:10:58.304Z,40.22
2023-01-17T16:13:27.804Z,40.13
2023-01-17T16:15:56.162Z,40.16
2023-01-17T16:18:26.602Z,40.19
2023-01-17T16:21:00.670Z,40.14
2023-01-17T16:23:29.071Z,40.19
2023-01-17T16:25:57.286Z,40.22
2023-01-17T16:28:25.384Z,40.08
2023-01-17T16:30:55.160Z,40.25
2023-01-17T16:33:23.285Z,40.16
2023-01-17T16:35:55.315Z,40.23
2023-01-17T16:38:23.712Z,40.05
2023-01-17T16:40:51.756Z,40.07
2023-01-17T16:43:20.985Z,40.06
2023-01-17T16:45:50.531Z,40.14
2023-01-17T16:48:20.584Z,40.18
2023-01-17T16:50:53.132Z,40.20
2023-01-17T16:53:24.927Z,40.27
2023-01-17T16:55:56.154Z,40.33
2023-01-17T16:58:24.764Z,40.39
2023-01-17T17:00:55.396Z,40.25
2023-01-17T17:03:25.099Z,40.41
2023-01-17T17:05:57.818Z,40.33
2023-01-17T17:08:25.906Z,40.45
2023-01-17T17:10:54.281Z,40.53
2023-01-17T17:13:22.566Z,40.43
2023-01-17T17:15:50.949Z,40.46
2023-01-17T17:18:19.597Z,40.43
2023-01-17T17:20:49.985Z,40.48
2023-01-17T17:23:18.020Z,40.50
2023-01-17T17:25:46.071Z,40.50
2023-01-17T17:28:14.284Z,40.48
2023-01-17T17:30:42.280Z,40.56
2023-01-17T17:33:10.904Z,40.54
2023-01-17T17:35:38.966Z,40.50
2023-01-17T17:38:08.471Z,40.46
2023-01-17T17:40:37.018Z,40.63
2023-01-17T17:43:05.058Z,40.63
2023-01-17T17:45:33.404Z,40.56
2023-01-17T17:48:01.566Z,40.58
2023-01-17T17:50:29.627Z,40.51
2023-01-17T17:52:57.753Z,40.59
2023-01-17T17:55:28.528Z,40.49
2023-01-17T17:57:56.703Z,40.48
2023-01-17T18:00:25.080Z,40.46
2023-01-17T18:02:53.105Z,40.41
2023-01-17T18:05:21.240Z,40.41
2023-01-17T18:07:50.990Z,40.53
2023-01-17T18:10:19.236Z,40.42
2023-01-17T18:12:49.330Z,40.43
2023-01-17T18:15:18.631Z,40.43
2023-01-17T18:17:47.327Z,40.64
2023-01-17T18:20:16.033Z,40.51
2023-01-17T18:22:44.086Z,40.48
2023-01-17T18:25:12.831Z,40.51
2023-01-17T18:27:45.126Z,40.43
2023-01-17T18:30:15.376Z,40.50
2023-01-17T18:32:43.721Z,40.45
2023-01-17T18:35:11.887Z,40.45
2023-01-17T18:37:40.095Z,40.50
2023-01-17T18:40:10.231Z,40.52
2023-01-17T18:42:39.033Z,40.45
2023-01-17T18:45:08.516Z,40.51
2023-01-17T18:47:38.797Z,40.48
2023-01-17T18:50:07.348Z,40.54
2023-01-17T18:52:35.433Z,40.53
2023-01-17T18:55:03.543Z,40.52
2023-01-17T18:57:31.772Z,40.42
2023-01-17T18:59:59.830Z,40.54
2023-01-17T19:02:27.957Z,40.45
2023-01-17T19:04:57.531Z,40.54
2023-01-17T19:07:29.124Z,40.64
2023-01-17T19:09:57.201Z,40.45
2023-01-17T19:12:25.333Z,40.44
2023-01-17T19:14:53.416Z,40.50
2023-01-17T19:17:21.671Z,40.40
2023-01-17T19:19:49.949Z,40.49
2023-01-17T19:22:19.531Z,40.57
2023-01-17T19:24:47.680Z,40.46
2023-01-17T19:27:16.196Z,40.49
2023-01-17T19:29:44.272Z,40.37
2023-01-17T19:32:12.354Z,40.48
2023-01-17T19:34:40.464Z,40.52
2023-01-17T19:37:08.626Z,40.43
2023-01-17T19:39:38.299Z,40.36
2023-01-17T19:42:09.558Z,40.36
2023-01-17T19:44:38.305Z,40.42
2023-01-17T19:47:06.540Z,40.42
2023-01-17T19:49:34.727Z,40.47
2023-01-17T19:52:03.770Z,40.35
2023-01-17T19:54:32.082Z,40.35
2023-01-17T19:57:01.608Z,40.39
2023-01-17T19:59:29.697Z,40.47
2023-01-17T20:02:00.334Z,40.47
2023-01-17T20:04:28.907Z,40.39
2023-01-17T20:06:59.171Z,40.33
2023-01-17T20:09:27.385Z,40.44
2023-01-17T20:11:55.480Z,40.33
2023-01-17T20:14:25.063Z,40.39
2023-01-17T20:16:53.865Z,40.44
2023-01-17T20:19:22.165Z,40.40
2023-01-17T20:21:50.359Z,40.30
2023-01-17T20:24:18.415Z,40.46
2023-01-17T20:26:46.657Z,40.43
2023-01-17T20:29:16.873Z,40.34
2023-01-17T20:31:47.510Z,40.39
2023-01-17T20:34:19.706Z,40.17
2023-01-17T20:36:48.118Z,40.18
2023-01-17T20:39:16.909Z,40.28
2023-01-17T20:41:46.259Z,40.29
2023-01-17T20:44:18.786Z,40.34
2023-01-17T20:46:48.986Z,40.39
2023-01-17T20:49:19.495Z,40.24
2023-01-17T20:51:48.323Z,40.41
2023-01-17T20:54:18.386Z,40.28
2023-01-17T20:56:49.283Z,40.41
2023-01-17T20:59:19.305Z,40.44
2023-01-17T21:01:49.158Z,40.21
2023-01-17T21:04:20.129Z,40.35
2023-01-17T21:06:51.738Z,40.35
2023-01-17T21:09:21.620Z,40.29
2023-01-17T21:11:50.617Z,40.31
2023-01-17T21:14:19.408Z,40.28
2023-01-17T21:16:50.343Z,40.36
2023-01-17T21:19:18.550Z,40.33
2023-01-17T21:21:48.568Z,40.35
2023-01-17T21:24:19.215Z,40.33
2023-01-17T21:26:51.548Z,40.28
2023-01-17T21:29:19.807Z,40.42
2023-01-17T21:31:49.458Z,40.37
2023-01-17T21:34:17.845Z,40.57
2023-01-17T21:36:45.963Z,40.29
2023-01-17T21:39:16.039Z,40.31
2023-01-17T21:41:46.827Z,40.29
2023-01-17T21:44:16.934Z,40.43
2023-01-17T21:46:45.101Z,40.39
2023-01-17T21:49:15.232Z,40.37
2023-01-17T21:52:02.072Z,40.35
2023-01-17T21:54:57.362Z,40.29
2023-01-17T21:57:44.522Z,40.28
2023-01-17T22:00:15.614Z,40.31
2023-01-17T22:02:44.374Z,40.38
2023-01-17T22:05:15.055Z,40.35
2023-01-17T22:08:03.517Z,40.46
2023-01-17T22:10:31.649Z,40.30
2023-01-17T22:12:59.980Z,40.39
2023-01-17T22:15:28.736Z,40.25
2023-01-17T22:17:57.141Z,40.40
2023-01-17T22:20:30.277Z,40.28
2023-01-17T22:22:58.829Z,40.19
2023-01-17T22:25:27.676Z,40.37
2023-01-17T22:27:56.178Z,40.26
2023-01-17T22:30:24.463Z,40.35
2023-01-17T22:32:52.488Z,40.33
2023-01-17T22:35:20.540Z,40.33
2023-01-17T22:37:49.923Z,40.23
2023-01-17T22:40:18.753Z,40.31
2023-01-17T22:42:46.836Z,40.29
2023-01-17T22:45:16.703Z,40.34
2023-01-17T22:47:44.807Z,40.30
2023-01-17T22:50:13.207Z,40.31
2023-01-17T22:52:42.091Z,40.17
2023-01-17T22:55:12.490Z,40.31
2023-01-17T22:57:40.616Z,40.17
2023-01-17T23:00:14.897Z,40.31
2023-01-17T23:02:43.812Z,40.29
2023-01-17T23:05:12.070Z,40.36
2023-01-17T23:07:46.575Z,40.14
2023-01-17T23:10:38.126Z,40.23
2023-01-17T23:13:10.425Z,40.19
2023-01-17T23:15:56.683Z,40.19
2023-01-17T23:18:42.028Z,40.25
2023-01-17T23:21:10.149Z,40.24
2023-01-17T23:23:38.223Z,40.24
2023-01-17T23:26:07.792Z,40.21
2023-01-17T23:28:34.922Z,40.21
2023-01-17T23:31:05.062Z,40.35
2023-01-17T23:33:33.252Z,40.28
2023-01-17T23:36:01.596Z,40.28
2023-01-17T23:38:34.160Z,40.51
2023-01-17T23:41:21.771Z,40.16
2023-01-17T23:43:55.440Z,40.16
2023-01-17T23:46:24.611Z,40.20
2023-01-17T23:48:52.927Z,40.17
2023-01-17T23:51:21.010Z,40.26
2023-01-17T23:53:49.040Z,40.28
2023-01-17T23:56:19.880Z,40.16
2023-01-17T23:58:47.931Z,40.17
